sensor_id;sensor_type;location;lat;lon;timestamp;temperature;humidity
22629;DHT22;11481;53.694;9.910;2022-11-15T00:00:50;7.70;99.90
22629;DHT22;11481;53.694;9.910;2022-11-15T00:03:17;7.70;99.90
22629;DHT22;11481;53.694;9.910;2022-11-15T00:05:45;7.70;99.90
22629;DHT22;11481;53.694;9.910;2022-11-15T00:08:12;7.70;99.90
22629;DHT22;11481;53.694;9.910;2022-11-15T00:10:39;7.70;99.90
22629;DHT22;11481;53.694;9.910;2022-11-15T00:13:11;7.70;99.90
22629;DHT22;11481;53.694;9.910;2022-11-15T00:15:40;7.60;99.90
22629;DHT22;11481;53.694;9.910;2022-11-15T00:18:12;7.60;99.90
22629;DHT22;11481;53.694;9.910;2022-11-15T00:20:39;7.60;99.90
22629;DHT22;11481;53.694;9.910;2022-11-15T00:23:07;7.60;99.90
22629;DHT22;11481;53.694;9.910;2022-11-15T00:25:34;7.50;99.90
22629;DHT22;11481;53.694;9.910;2022-11-15T00:28:00;7.50;99.90
22629;DHT22;11481;53.694;9.910;2022-11-15T00:30:28;7.50;99.90
22629;DHT22;11481;53.694;9.910;2022-11-15T00:32:55;7.50;99.90
22629;DHT22;11481;53.694;9.910;2022-11-15T00:35:22;7.50;99.90
22629;DHT22;11481;53.694;9.910;2022-11-15T00:37:48;7.50;99.90
22629;DHT22;11481;53.694;9.910;2022-11-15T00:40:15;7.50;99.90
22629;DHT22;11481;53.694;9.910;2022-11-15T00:42:42;7.50;99.90
22629;DHT22;11481;53.694;9.910;2022-11-15T00:45:09;7.50;99.90
22629;DHT22;11481;53.694;9.910;2022-11-15T00:47:35;7.50;99.90
22629;DHT22;11481;53.694;9.910;2022-11-15T00:50:02;7.50;99.90
22629;DHT22;11481;53.694;9.910;2022-11-15T00:52:30;7.50;99.90
22629;DHT22;11481;53.694;9.910;2022-11-15T00:54:56;7.50;99.90
22629;DHT22;11481;53.694;9.910;2022-11-15T00:57:23;7.50;99.90
22629;DHT22;11481;53.694;9.910;2022-11-15T00:59:49;7.60;99.90
22629;DHT22;11481;53.694;9.910;2022-11-15T01:02:16;7.60;99.90
22629;DHT22;11481;53.694;9.910;2022-11-15T01:04:43;7.60;99.90
22629;DHT22;11481;53.694;9.910;2022-11-15T01:07:09;7.60;99.90
22629;DHT22;11481;53.694;9.910;2022-11-15T01:09:36;7.60;99.90
22629;DHT22;11481;53.694;9.910;2022-11-15T01:12:03;7.60;99.90
22629;DHT22;11481;53.694;9.910;2022-11-15T01:14:30;7.60;99.90
22629;DHT22;11481;53.694;9.910;2022-11-15T01:16:56;7.60;99.90
22629;DHT22;11481;53.694;9.910;2022-11-15T01:19:23;7.60;99.90
22629;DHT22;11481;53.694;9.910;2022-11-15T01:21:50;7.70;99.90
22629;DHT22;11481;53.694;9.910;2022-11-15T01:24:17;7.60;99.90
22629;DHT22;11481;53.694;9.910;2022-11-15T01:26:43;7.60;99.90
22629;DHT22;11481;53.694;9.910;2022-11-15T01:29:10;7.60;99.90
22629;DHT22;11481;53.694;9.910;2022-11-15T01:31:37;7.60;99.90
22629;DHT22;11481;53.694;9.910;2022-11-15T01:34:04;7.60;99.90
22629;DHT22;11481;53.694;9.910;2022-11-15T01:36:31;7.50;99.90
22629;DHT22;11481;53.694;9.910;2022-11-15T01:38:58;7.50;99.90
22629;DHT22;11481;53.694;9.910;2022-11-15T01:41:27;7.50;99.90
22629;DHT22;11481;53.694;9.910;2022-11-15T01:46:58;7.40;99.90
22629;DHT22;11481;53.694;9.910;2022-11-15T01:49:27;7.40;99.90
22629;DHT22;11481;53.694;9.910;2022-11-15T01:51:56;7.40;99.90
22629;DHT22;11481;53.694;9.910;2022-11-15T01:54:24;7.40;99.90
22629;DHT22;11481;53.694;9.910;2022-11-15T01:56:54;7.40;99.90
22629;DHT22;11481;53.694;9.910;2022-11-15T01:59:23;7.40;99.90
22629;DHT22;11481;53.694;9.910;2022-11-15T02:01:50;7.40;99.90
22629;DHT22;11481;53.694;9.910;2022-11-15T02:04:28;7.30;99.90
22629;DHT22;11481;53.694;9.910;2022-11-15T02:06:56;7.30;99.90
22629;DHT22;11481;53.694;9.910;2022-11-15T02:09:23;7.30;99.90
22629;DHT22;11481;53.694;9.910;2022-11-15T02:11:50;7.30;99.90
22629;DHT22;11481;53.694;9.910;2022-11-15T02:14:19;7.30;99.90
22629;DHT22;11481;53.694;9.910;2022-11-15T02:28:34;7.30;99.90
22629;DHT22;11481;53.694;9.910;2022-11-15T02:42:24;7.10;99.90
22629;DHT22;11481;53.694;9.910;2022-11-15T02:45:16;7.00;99.90
22629;DHT22;11481;53.694;9.910;2022-11-15T02:47:47;7.10;99.90
22629;DHT22;11481;53.694;9.910;2022-11-15T02:50:18;7.00;99.90
22629;DHT22;11481;53.694;9.910;2022-11-15T02:52:46;7.10;99.90
22629;DHT22;11481;53.694;9.910;2022-11-15T02:55:41;7.00;99.90
22629;DHT22;11481;53.694;9.910;2022-11-15T03:04:08;7.00;99.90
22629;DHT22;11481;53.694;9.910;2022-11-15T03:06:57;6.90;99.90
22629;DHT22;11481;53.694;9.910;2022-11-15T03:12:32;6.80;99.90
22629;DHT22;11481;53.694;9.910;2022-11-15T03:15:19;6.80;99.90
22629;DHT22;11481;53.694;9.910;2022-11-15T03:18:00;6.80;99.90
22629;DHT22;11481;53.694;9.910;2022-11-15T03:20:29;6.80;99.90
22629;DHT22;11481;53.694;9.910;2022-11-15T03:23:03;6.70;99.90
22629;DHT22;11481;53.694;9.910;2022-11-15T03:25:32;6.70;99.90
22629;DHT22;11481;53.694;9.910;2022-11-15T03:28:01;6.70;99.90
22629;DHT22;11481;53.694;9.910;2022-11-15T03:30:31;6.70;99.90
22629;DHT22;11481;53.694;9.910;2022-11-15T03:33:00;6.70;99.90
22629;DHT22;11481;53.694;9.910;2022-11-15T03:35:31;6.70;99.90
22629;DHT22;11481;53.694;9.910;2022-11-15T03:40:45;6.70;99.90
22629;DHT22;11481;53.694;9.910;2022-11-15T03:43:15;6.70;99.90
22629;DHT22;11481;53.694;9.910;2022-11-15T03:45:54;6.70;99.90
22629;DHT22;11481;53.694;9.910;2022-11-15T03:48:25;6.70;99.90
22629;DHT22;11481;53.694;9.910;2022-11-15T03:50:53;6.70;99.90
22629;DHT22;11481;53.694;9.910;2022-11-15T03:53:20;6.70;99.90
22629;DHT22;11481;53.694;9.910;2022-11-15T03:55:47;6.60;99.90
22629;DHT22;11481;53.694;9.910;2022-11-15T03:58:14;6.70;99.90
22629;DHT22;11481;53.694;9.910;2022-11-15T04:00:40;6.60;99.90
22629;DHT22;11481;53.694;9.910;2022-11-15T04:03:07;6.70;99.90
22629;DHT22;11481;53.694;9.910;2022-11-15T04:05:34;6.70;99.90
22629;DHT22;11481;53.694;9.910;2022-11-15T04:08:00;6.70;99.90
22629;DHT22;11481;53.694;9.910;2022-11-15T04:10:27;6.70;99.90
22629;DHT22;11481;53.694;9.910;2022-11-15T04:12:54;6.70;99.90
22629;DHT22;11481;53.694;9.910;2022-11-15T04:15:22;6.70;99.90
22629;DHT22;11481;53.694;9.910;2022-11-15T04:17:52;6.70;99.90
22629;DHT22;11481;53.694;9.910;2022-11-15T04:20:27;6.70;99.90
22629;DHT22;11481;53.694;9.910;2022-11-15T04:23:15;6.70;99.90
22629;DHT22;11481;53.694;9.910;2022-11-15T04:26:12;6.70;99.90
22629;DHT22;11481;53.694;9.910;2022-11-15T04:28:40;6.70;99.90
22629;DHT22;11481;53.694;9.910;2022-11-15T04:31:26;6.70;99.90
22629;DHT22;11481;53.694;9.910;2022-11-15T04:33:53;6.70;99.90
22629;DHT22;11481;53.694;9.910;2022-11-15T04:36:21;6.80;99.90
22629;DHT22;11481;53.694;9.910;2022-11-15T04:39:06;6.80;99.90
22629;DHT22;11481;53.694;9.910;2022-11-15T04:41:33;6.90;99.90
22629;DHT22;11481;53.694;9.910;2022-11-15T04:44:00;7.00;99.90
22629;DHT22;11481;53.694;9.910;2022-11-15T04:46:27;7.00;99.90
22629;DHT22;11481;53.694;9.910;2022-11-15T04:48:54;7.00;99.90
22629;DHT22;11481;53.694;9.910;2022-11-15T04:51:25;7.00;99.90
22629;DHT22;11481;53.694;9.910;2022-11-15T04:53:51;7.00;99.90
22629;DHT22;11481;53.694;9.910;2022-11-15T04:56:18;7.10;99.90
22629;DHT22;11481;53.694;9.910;2022-11-15T04:58:48;7.20;99.90
22629;DHT22;11481;53.694;9.910;2022-11-15T05:01:15;7.20;99.90
22629;DHT22;11481;53.694;9.910;2022-11-15T05:03:43;7.20;99.90
22629;DHT22;11481;53.694;9.910;2022-11-15T05:06:29;7.20;99.90
22629;DHT22;11481;53.694;9.910;2022-11-15T05:08:56;7.30;99.90
22629;DHT22;11481;53.694;9.910;2022-11-15T05:11:22;7.30;99.90
22629;DHT22;11481;53.694;9.910;2022-11-15T05:13:49;7.30;99.90
22629;DHT22;11481;53.694;9.910;2022-11-15T05:16:16;7.40;99.90
22629;DHT22;11481;53.694;9.910;2022-11-15T05:18:43;7.40;99.90
22629;DHT22;11481;53.694;9.910;2022-11-15T05:21:12;7.40;99.90
22629;DHT22;11481;53.694;9.910;2022-11-15T05:23:40;7.40;99.90
22629;DHT22;11481;53.694;9.910;2022-11-15T05:26:08;7.40;99.90
22629;DHT22;11481;53.694;9.910;2022-11-15T05:28:35;7.50;99.90
22629;DHT22;11481;53.694;9.910;2022-11-15T05:31:08;7.50;99.90
22629;DHT22;11481;53.694;9.910;2022-11-15T05:33:36;7.50;99.90
22629;DHT22;11481;53.694;9.910;2022-11-15T05:38:58;7.50;99.90
22629;DHT22;11481;53.694;9.910;2022-11-15T05:41:43;7.50;99.90
22629;DHT22;11481;53.694;9.910;2022-11-15T05:44:14;7.50;99.90
22629;DHT22;11481;53.694;9.910;2022-11-15T05:46:42;7.60;99.90
22629;DHT22;11481;53.694;9.910;2022-11-15T05:49:11;7.60;99.90
22629;DHT22;11481;53.694;9.910;2022-11-15T05:51:39;7.60;99.90
22629;DHT22;11481;53.694;9.910;2022-11-15T05:54:07;7.60;99.90
22629;DHT22;11481;53.694;9.910;2022-11-15T05:56:34;7.60;99.90
22629;DHT22;11481;53.694;9.910;2022-11-15T05:59:01;7.70;99.90
22629;DHT22;11481;53.694;9.910;2022-11-15T06:01:28;7.60;99.90
22629;DHT22;11481;53.694;9.910;2022-11-15T06:03:54;7.70;99.90
22629;DHT22;11481;53.694;9.910;2022-11-15T06:06:21;7.70;99.90
22629;DHT22;11481;53.694;9.910;2022-11-15T06:08:47;7.70;99.90
22629;DHT22;11481;53.694;9.910;2022-11-15T06:11:14;7.70;99.90
22629;DHT22;11481;53.694;9.910;2022-11-15T06:13:41;7.80;99.90
22629;DHT22;11481;53.694;9.910;2022-11-15T06:16:07;7.80;99.90
22629;DHT22;11481;53.694;9.910;2022-11-15T06:18:35;7.70;99.90
22629;DHT22;11481;53.694;9.910;2022-11-15T06:21:02;7.80;99.90
22629;DHT22;11481;53.694;9.910;2022-11-15T06:23:32;7.80;99.90
22629;DHT22;11481;53.694;9.910;2022-11-15T06:26:00;7.80;99.90
22629;DHT22;11481;53.694;9.910;2022-11-15T06:28:30;7.80;99.90
22629;DHT22;11481;53.694;9.910;2022-11-15T06:31:03;7.80;99.90
22629;DHT22;11481;53.694;9.910;2022-11-15T06:33:30;7.80;99.90
22629;DHT22;11481;53.694;9.910;2022-11-15T06:36:03;7.90;99.90
22629;DHT22;11481;53.694;9.910;2022-11-15T06:38:30;7.90;99.90
22629;DHT22;11481;53.694;9.910;2022-11-15T06:41:08;7.90;99.90
22629;DHT22;11481;53.694;9.910;2022-11-15T06:43:36;8.00;99.90
22629;DHT22;11481;53.694;9.910;2022-11-15T06:46:04;8.00;99.90
22629;DHT22;11481;53.694;9.910;2022-11-15T06:48:32;8.00;99.90
22629;DHT22;11481;53.694;9.910;2022-11-15T06:51:01;8.00;99.90
22629;DHT22;11481;53.694;9.910;2022-11-15T06:53:29;8.00;99.90
22629;DHT22;11481;53.694;9.910;2022-11-15T06:56:04;8.00;99.90
22629;DHT22;11481;53.694;9.910;2022-11-15T06:58:32;8.00;99.90
22629;DHT22;11481;53.694;9.910;2022-11-15T07:01:01;8.00;99.90
22629;DHT22;11481;53.694;9.910;2022-11-15T07:03:28;8.00;99.90
22629;DHT22;11481;53.694;9.910;2022-11-15T07:05:56;8.00;99.90
22629;DHT22;11481;53.694;9.910;2022-11-15T07:08:31;8.10;99.90
22629;DHT22;11481;53.694;9.910;2022-11-15T07:11:02;8.00;99.90
22629;DHT22;11481;53.694;9.910;2022-11-15T07:13:30;8.00;99.90
22629;DHT22;11481;53.694;9.910;2022-11-15T07:16:03;8.10;99.90
22629;DHT22;11481;53.694;9.910;2022-11-15T07:18:30;8.10;99.90
22629;DHT22;11481;53.694;9.910;2022-11-15T07:21:01;8.10;99.90
22629;DHT22;11481;53.694;9.910;2022-11-15T07:23:28;8.10;99.90
22629;DHT22;11481;53.694;9.910;2022-11-15T07:26:00;8.10;99.90
22629;DHT22;11481;53.694;9.910;2022-11-15T07:28:27;8.10;99.90
22629;DHT22;11481;53.694;9.910;2022-11-15T07:30:54;8.10;99.90
22629;DHT22;11481;53.694;9.910;2022-11-15T07:33:21;8.10;99.90
22629;DHT22;11481;53.694;9.910;2022-11-15T07:35:48;8.20;99.90
22629;DHT22;11481;53.694;9.910;2022-11-15T07:38:15;8.10;99.90
22629;DHT22;11481;53.694;9.910;2022-11-15T07:40:42;8.20;99.90
22629;DHT22;11481;53.694;9.910;2022-11-15T07:43:08;8.20;99.90
22629;DHT22;11481;53.694;9.910;2022-11-15T07:45:43;8.20;99.90
22629;DHT22;11481;53.694;9.910;2022-11-15T07:48:10;8.30;99.90
22629;DHT22;11481;53.694;9.910;2022-11-15T07:50:40;8.30;99.90
22629;DHT22;11481;53.694;9.910;2022-11-15T07:53:09;8.30;99.90
22629;DHT22;11481;53.694;9.910;2022-11-15T07:55:36;8.30;99.90
22629;DHT22;11481;53.694;9.910;2022-11-15T07:58:06;8.30;99.90
22629;DHT22;11481;53.694;9.910;2022-11-15T08:00:34;8.30;99.90
22629;DHT22;11481;53.694;9.910;2022-11-15T08:03:13;8.40;99.90
22629;DHT22;11481;53.694;9.910;2022-11-15T08:05:40;8.40;99.90
22629;DHT22;11481;53.694;9.910;2022-11-15T08:08:09;8.40;99.90
22629;DHT22;11481;53.694;9.910;2022-11-15T08:10:36;8.40;99.90
22629;DHT22;11481;53.694;9.910;2022-11-15T08:13:08;8.40;99.90
22629;DHT22;11481;53.694;9.910;2022-11-15T08:15:36;8.40;99.90
22629;DHT22;11481;53.694;9.910;2022-11-15T08:18:16;8.40;99.90
22629;DHT22;11481;53.694;9.910;2022-11-15T08:20:43;8.40;99.90
22629;DHT22;11481;53.694;9.910;2022-11-15T08:23:11;8.40;99.90
22629;DHT22;11481;53.694;9.910;2022-11-15T08:25:38;8.50;99.90
22629;DHT22;11481;53.694;9.910;2022-11-15T08:28:07;8.50;99.90
22629;DHT22;11481;53.694;9.910;2022-11-15T08:30:36;8.50;99.90
22629;DHT22;11481;53.694;9.910;2022-11-15T08:33:03;8.50;99.90
22629;DHT22;11481;53.694;9.910;2022-11-15T08:35:30;8.50;99.90
22629;DHT22;11481;53.694;9.910;2022-11-15T08:37:57;8.60;99.90
22629;DHT22;11481;53.694;9.910;2022-11-15T08:40:23;8.60;99.90
22629;DHT22;11481;53.694;9.910;2022-11-15T08:42:50;8.70;99.90
22629;DHT22;11481;53.694;9.910;2022-11-15T08:45:17;8.70;99.90
22629;DHT22;11481;53.694;9.910;2022-11-15T08:47:44;8.70;99.90
22629;DHT22;11481;53.694;9.910;2022-11-15T08:50:18;8.70;99.90
22629;DHT22;11481;53.694;9.910;2022-11-15T08:52:45;8.80;99.90
22629;DHT22;11481;53.694;9.910;2022-11-15T08:55:11;8.80;99.90
22629;DHT22;11481;53.694;9.910;2022-11-15T08:57:38;8.80;99.90
22629;DHT22;11481;53.694;9.910;2022-11-15T09:00:05;8.90;99.90
22629;DHT22;11481;53.694;9.910;2022-11-15T09:02:32;8.90;99.90
22629;DHT22;11481;53.694;9.910;2022-11-15T09:04:59;8.90;99.90
22629;DHT22;11481;53.694;9.910;2022-11-15T09:07:25;9.00;99.90
22629;DHT22;11481;53.694;9.910;2022-11-15T09:09:52;9.00;99.90
22629;DHT22;11481;53.694;9.910;2022-11-15T09:12:18;9.00;99.90
22629;DHT22;11481;53.694;9.910;2022-11-15T09:14:45;9.00;99.90
22629;DHT22;11481;53.694;9.910;2022-11-15T09:17:11;9.00;99.90
22629;DHT22;11481;53.694;9.910;2022-11-15T09:19:38;9.10;99.90
22629;DHT22;11481;53.694;9.910;2022-11-15T09:22:08;9.00;99.90
22629;DHT22;11481;53.694;9.910;2022-11-15T09:24:35;9.10;99.90
22629;DHT22;11481;53.694;9.910;2022-11-15T09:27:02;9.10;99.90
22629;DHT22;11481;53.694;9.910;2022-11-15T09:29:29;9.10;99.90
22629;DHT22;11481;53.694;9.910;2022-11-15T09:31:55;9.10;99.90
22629;DHT22;11481;53.694;9.910;2022-11-15T09:34:22;9.20;99.90
22629;DHT22;11481;53.694;9.910;2022-11-15T09:36:48;9.20;99.90
22629;DHT22;11481;53.694;9.910;2022-11-15T09:39:15;9.20;99.90
22629;DHT22;11481;53.694;9.910;2022-11-15T09:42:12;9.30;99.90
22629;DHT22;11481;53.694;9.910;2022-11-15T09:50:47;9.40;99.90
22629;DHT22;11481;53.694;9.910;2022-11-15T09:56:21;9.40;99.90
22629;DHT22;11481;53.694;9.910;2022-11-15T10:04:31;9.60;99.90
22629;DHT22;11481;53.694;9.910;2022-11-15T10:07:20;9.60;99.90
22629;DHT22;11481;53.694;9.910;2022-11-15T10:12:30;9.80;99.90
22629;DHT22;11481;53.694;9.910;2022-11-15T10:15:09;9.80;99.90
22629;DHT22;11481;53.694;9.910;2022-11-15T10:20:37;9.80;99.90
22629;DHT22;11481;53.694;9.910;2022-11-15T10:23:11;9.90;99.90
22629;DHT22;11481;53.694;9.910;2022-11-15T10:25:39;10.00;99.90
22629;DHT22;11481;53.694;9.910;2022-11-15T10:28:27;10.00;99.90
22629;DHT22;11481;53.694;9.910;2022-11-15T10:30:58;10.10;99.90
22629;DHT22;11481;53.694;9.910;2022-11-15T10:33:31;10.00;99.90
22629;DHT22;11481;53.694;9.910;2022-11-15T10:38:53;10.10;99.90
22629;DHT22;11481;53.694;9.910;2022-11-15T10:44:19;10.20;99.90
22629;DHT22;11481;53.694;9.910;2022-11-15T10:51:57;10.30;99.90
22629;DHT22;11481;53.694;9.910;2022-11-15T10:54:37;10.30;99.90
22629;DHT22;11481;53.694;9.910;2022-11-15T10:57:10;10.30;99.90
22629;DHT22;11481;53.694;9.910;2022-11-15T10:59:44;10.40;99.90
22629;DHT22;11481;53.694;9.910;2022-11-15T11:02:28;10.30;99.90
22629;DHT22;11481;53.694;9.910;2022-11-15T11:04:57;10.40;99.90
22629;DHT22;11481;53.694;9.910;2022-11-15T11:07:29;10.40;99.90
22629;DHT22;11481;53.694;9.910;2022-11-15T11:10:18;10.50;99.90
22629;DHT22;11481;53.694;9.910;2022-11-15T11:15:44;10.50;99.90
22629;DHT22;11481;53.694;9.910;2022-11-15T11:18:21;10.60;99.90
22629;DHT22;11481;53.694;9.910;2022-11-15T11:21:13;10.60;99.90
22629;DHT22;11481;53.694;9.910;2022-11-15T11:23:53;10.60;99.90
22629;DHT22;11481;53.694;9.910;2022-11-15T11:26:38;10.60;99.90
22629;DHT22;11481;53.694;9.910;2022-11-15T11:29:36;10.60;99.90
22629;DHT22;11481;53.694;9.910;2022-11-15T11:40:35;10.70;99.90
22629;DHT22;11481;53.694;9.910;2022-11-15T11:46:19;10.80;99.90
22629;DHT22;11481;53.694;9.910;2022-11-15T11:48:51;10.80;99.90
22629;DHT22;11481;53.694;9.910;2022-11-15T11:51:25;10.90;99.90
22629;DHT22;11481;53.694;9.910;2022-11-15T11:53:58;10.90;99.90
22629;DHT22;11481;53.694;9.910;2022-11-15T11:56:31;11.00;99.90
22629;DHT22;11481;53.694;9.910;2022-11-15T11:59:19;11.00;99.90
22629;DHT22;11481;53.694;9.910;2022-11-15T12:01:47;11.10;99.90
22629;DHT22;11481;53.694;9.910;2022-11-15T12:04:16;11.20;99.90
22629;DHT22;11481;53.694;9.910;2022-11-15T12:06:55;11.20;99.90
22629;DHT22;11481;53.694;9.910;2022-11-15T12:12:18;11.20;99.90
22629;DHT22;11481;53.694;9.910;2022-11-15T12:15:04;11.30;99.90
22629;DHT22;11481;53.694;9.910;2022-11-15T12:17:38;11.30;99.90
22629;DHT22;11481;53.694;9.910;2022-11-15T12:20:27;11.30;99.90
22629;DHT22;11481;53.694;9.910;2022-11-15T12:22:57;11.30;99.90
22629;DHT22;11481;53.694;9.910;2022-11-15T12:25:33;11.30;99.90
22629;DHT22;11481;53.694;9.910;2022-11-15T12:28:18;11.40;99.90
22629;DHT22;11481;53.694;9.910;2022-11-15T12:30:52;11.40;99.90
22629;DHT22;11481;53.694;9.910;2022-11-15T12:33:40;11.40;99.90
22629;DHT22;11481;53.694;9.910;2022-11-15T12:39:01;11.50;99.90
22629;DHT22;11481;53.694;9.910;2022-11-15T12:41:33;11.50;99.90
22629;DHT22;11481;53.694;9.910;2022-11-15T12:44:01;11.60;99.90
22629;DHT22;11481;53.694;9.910;2022-11-15T12:49:03;11.80;99.90
22629;DHT22;11481;53.694;9.910;2022-11-15T12:59:50;12.00;99.90
22629;DHT22;11481;53.694;9.910;2022-11-15T13:02:41;12.00;99.90
22629;DHT22;11481;53.694;9.910;2022-11-15T13:13:02;12.30;99.90
22629;DHT22;11481;53.694;9.910;2022-11-15T13:15:54;12.40;99.90
22629;DHT22;11481;53.694;9.910;2022-11-15T13:18:29;12.50;99.90
22629;DHT22;11481;53.694;9.910;2022-11-15T13:20:58;12.50;99.90
22629;DHT22;11481;53.694;9.910;2022-11-15T13:23:28;12.50;99.90
22629;DHT22;11481;53.694;9.910;2022-11-15T13:28:43;12.60;99.90
22629;DHT22;11481;53.694;9.910;2022-11-15T13:31:30;12.70;99.90
22629;DHT22;11481;53.694;9.910;2022-11-15T13:37:01;12.80;99.90
22629;DHT22;11481;53.694;9.910;2022-11-15T13:39:33;12.80;99.90
22629;DHT22;11481;53.694;9.910;2022-11-15T13:42:00;12.80;99.90
22629;DHT22;11481;53.694;9.910;2022-11-15T13:44:32;12.80;99.90
22629;DHT22;11481;53.694;9.910;2022-11-15T13:47:24;12.90;99.90
22629;DHT22;11481;53.694;9.910;2022-11-15T13:49:51;12.90;99.90
22629;DHT22;11481;53.694;9.910;2022-11-15T13:52:18;12.90;99.90
22629;DHT22;11481;53.694;9.910;2022-11-15T13:55:21;13.00;99.90
22629;DHT22;11481;53.694;9.910;2022-11-15T13:57:54;13.00;99.90
22629;DHT22;11481;53.694;9.910;2022-11-15T14:00:35;13.10;99.90
22629;DHT22;11481;53.694;9.910;2022-11-15T14:03:17;13.10;99.90
22629;DHT22;11481;53.694;9.910;2022-11-15T14:06:04;13.20;99.90
22629;DHT22;11481;53.694;9.910;2022-11-15T14:08:35;13.30;99.90
22629;DHT22;11481;53.694;9.910;2022-11-15T14:13:37;13.40;99.90
22629;DHT22;11481;53.694;9.910;2022-11-15T14:16:18;13.60;99.90
22629;DHT22;11481;53.694;9.910;2022-11-15T14:18:50;13.60;99.90
22629;DHT22;11481;53.694;9.910;2022-11-15T14:21:19;13.50;99.90
22629;DHT22;11481;53.694;9.910;2022-11-15T14:23:46;13.50;99.90
22629;DHT22;11481;53.694;9.910;2022-11-15T14:26:28;13.50;99.90
22629;DHT22;11481;53.694;9.910;2022-11-15T14:28:55;13.50;99.90
22629;DHT22;11481;53.694;9.910;2022-11-15T14:31:22;13.40;99.90
22629;DHT22;11481;53.694;9.910;2022-11-15T14:33:48;13.40;99.90
22629;DHT22;11481;53.694;9.910;2022-11-15T14:36:18;13.40;99.90
22629;DHT22;11481;53.694;9.910;2022-11-15T14:38:45;13.40;99.90
22629;DHT22;11481;53.694;9.910;2022-11-15T14:41:20;13.40;99.90
22629;DHT22;11481;53.694;9.910;2022-11-15T14:43:47;13.50;99.90
22629;DHT22;11481;53.694;9.910;2022-11-15T14:46:14;13.50;99.90
22629;DHT22;11481;53.694;9.910;2022-11-15T14:48:41;13.40;99.90
22629;DHT22;11481;53.694;9.910;2022-11-15T14:51:15;13.40;99.90
22629;DHT22;11481;53.694;9.910;2022-11-15T14:53:43;13.40;99.90
22629;DHT22;11481;53.694;9.910;2022-11-15T14:56:12;13.40;99.90
22629;DHT22;11481;53.694;9.910;2022-11-15T14:58:38;13.40;99.90
22629;DHT22;11481;53.694;9.910;2022-11-15T15:01:13;13.30;99.90
22629;DHT22;11481;53.694;9.910;2022-11-15T15:03:40;13.20;99.90
22629;DHT22;11481;53.694;9.910;2022-11-15T15:06:07;13.20;99.90
22629;DHT22;11481;53.694;9.910;2022-11-15T15:08:43;13.10;99.90
22629;DHT22;11481;53.694;9.910;2022-11-15T15:11:20;13.10;99.90
22629;DHT22;11481;53.694;9.910;2022-11-15T15:13:47;13.00;99.90
22629;DHT22;11481;53.694;9.910;2022-11-15T15:16:14;12.90;99.90
22629;DHT22;11481;53.694;9.910;2022-11-15T15:18:41;12.90;99.90
22629;DHT22;11481;53.694;9.910;2022-11-15T15:21:20;12.90;99.90
22629;DHT22;11481;53.694;9.910;2022-11-15T15:23:48;12.80;99.90
22629;DHT22;11481;53.694;9.910;2022-11-15T15:26:15;12.80;99.90
22629;DHT22;11481;53.694;9.910;2022-11-15T15:28:42;12.80;99.90
22629;DHT22;11481;53.694;9.910;2022-11-15T15:31:09;12.70;99.90
22629;DHT22;11481;53.694;9.910;2022-11-15T15:33:37;12.70;99.90
22629;DHT22;11481;53.694;9.910;2022-11-15T15:36:03;12.70;99.90
22629;DHT22;11481;53.694;9.910;2022-11-15T15:38:30;12.70;99.90
22629;DHT22;11481;53.694;9.910;2022-11-15T15:40:57;12.70;99.90
22629;DHT22;11481;53.694;9.910;2022-11-15T15:43:25;12.60;99.90
22629;DHT22;11481;53.694;9.910;2022-11-15T15:45:53;12.60;99.90
22629;DHT22;11481;53.694;9.910;2022-11-15T15:48:20;12.60;99.90
22629;DHT22;11481;53.694;9.910;2022-11-15T15:50:46;12.60;99.90
22629;DHT22;11481;53.694;9.910;2022-11-15T15:53:15;12.60;99.90
22629;DHT22;11481;53.694;9.910;2022-11-15T15:55:42;12.50;99.90
22629;DHT22;11481;53.694;9.910;2022-11-15T15:58:08;12.50;99.90
22629;DHT22;11481;53.694;9.910;2022-11-15T16:00:36;12.50;99.90
22629;DHT22;11481;53.694;9.910;2022-11-15T16:03:03;12.40;99.90
22629;DHT22;11481;53.694;9.910;2022-11-15T16:05:30;12.40;99.90
22629;DHT22;11481;53.694;9.910;2022-11-15T16:07:56;12.40;99.90
22629;DHT22;11481;53.694;9.910;2022-11-15T16:10:26;12.40;99.90
22629;DHT22;11481;53.694;9.910;2022-11-15T16:12:53;12.40;99.90
22629;DHT22;11481;53.694;9.910;2022-11-15T16:15:22;12.30;99.90
22629;DHT22;11481;53.694;9.910;2022-11-15T16:17:54;12.20;99.90
22629;DHT22;11481;53.694;9.910;2022-11-15T16:23:08;12.10;99.90
22629;DHT22;11481;53.694;9.910;2022-11-15T16:25:45;12.00;99.90
22629;DHT22;11481;53.694;9.910;2022-11-15T16:28:29;12.00;99.90
22629;DHT22;11481;53.694;9.910;2022-11-15T16:31:08;12.00;99.90
22629;DHT22;11481;53.694;9.910;2022-11-15T16:33:35;12.00;99.90
22629;DHT22;11481;53.694;9.910;2022-11-15T16:36:04;12.00;99.90
22629;DHT22;11481;53.694;9.910;2022-11-15T16:38:31;12.00;99.90
22629;DHT22;11481;53.694;9.910;2022-11-15T16:40:58;11.90;99.90
22629;DHT22;11481;53.694;9.910;2022-11-15T16:43:25;11.90;99.90
22629;DHT22;11481;53.694;9.910;2022-11-15T16:45:51;12.00;99.90
22629;DHT22;11481;53.694;9.910;2022-11-15T16:48:26;11.90;99.90
22629;DHT22;11481;53.694;9.910;2022-11-15T16:50:57;11.90;99.90
22629;DHT22;11481;53.694;9.910;2022-11-15T16:53:25;11.90;99.90
22629;DHT22;11481;53.694;9.910;2022-11-15T16:55:53;11.80;99.90
22629;DHT22;11481;53.694;9.910;2022-11-15T16:58:21;11.80;99.90
22629;DHT22;11481;53.694;9.910;2022-11-15T17:00:54;11.80;99.90
22629;DHT22;11481;53.694;9.910;2022-11-15T17:03:23;11.80;99.90
22629;DHT22;11481;53.694;9.910;2022-11-15T17:05:50;11.70;99.90
22629;DHT22;11481;53.694;9.910;2022-11-15T17:08:17;11.70;99.90
22629;DHT22;11481;53.694;9.910;2022-11-15T17:10:46;11.70;99.90
22629;DHT22;11481;53.694;9.910;2022-11-15T17:13:13;11.70;99.90
22629;DHT22;11481;53.694;9.910;2022-11-15T17:15:40;11.70;99.90
22629;DHT22;11481;53.694;9.910;2022-11-15T17:18:10;11.70;99.90
22629;DHT22;11481;53.694;9.910;2022-11-15T17:20:37;11.70;99.90
22629;DHT22;11481;53.694;9.910;2022-11-15T17:23:05;11.60;99.90
22629;DHT22;11481;53.694;9.910;2022-11-15T17:25:37;11.60;99.90
22629;DHT22;11481;53.694;9.910;2022-11-15T17:28:04;11.60;99.90
22629;DHT22;11481;53.694;9.910;2022-11-15T17:30:30;11.60;99.90
22629;DHT22;11481;53.694;9.910;2022-11-15T17:32:57;11.60;99.90
22629;DHT22;11481;53.694;9.910;2022-11-15T17:35:24;11.60;99.90
22629;DHT22;11481;53.694;9.910;2022-11-15T17:37:50;11.60;99.90
22629;DHT22;11481;53.694;9.910;2022-11-15T17:40:18;11.50;99.90
22629;DHT22;11481;53.694;9.910;2022-11-15T17:42:44;11.50;99.90
22629;DHT22;11481;53.694;9.910;2022-11-15T17:45:11;11.50;99.90
22629;DHT22;11481;53.694;9.910;2022-11-15T17:47:37;11.50;99.90
22629;DHT22;11481;53.694;9.910;2022-11-15T17:50:05;11.50;99.90
22629;DHT22;11481;53.694;9.910;2022-11-15T17:52:31;11.50;99.90
22629;DHT22;11481;53.694;9.910;2022-11-15T17:54:58;11.50;99.90
22629;DHT22;11481;53.694;9.910;2022-11-15T17:57:24;11.40;99.90
22629;DHT22;11481;53.694;9.910;2022-11-15T17:59:51;11.40;99.90
22629;DHT22;11481;53.694;9.910;2022-11-15T18:02:17;11.40;99.90